sensor_id;sensor_type;location;lat;lon;timestamp;P1;durP1;ratioP1;P2;durP2;ratioP2
781;SDS011;374;52.568;13.402;2023-11-18T00:01:48;9.43;;;7.30;;
781;SDS011;374;52.568;13.402;2023-11-18T00:04:13;9.93;;;7.77;;
781;SDS011;374;52.568;13.402;2023-11-18T00:06:42;9.10;;;7.40;;
781;SDS011;374;52.568;13.402;2023-11-18T00:09:11;10.53;;;8.20;;
781;SDS011;374;52.568;13.402;2023-11-18T00:11:40;11.60;;;8.30;;
781;SDS011;374;52.568;13.402;2023-11-18T00:14:07;9.17;;;7.80;;
781;SDS011;374;52.568;13.402;2023-11-18T00:16:33;8.70;;;7.27;;
781;SDS011;374;52.568;13.402;2023-11-18T00:19:00;11.23;;;7.97;;
781;SDS011;374;52.568;13.402;2023-11-18T00:21:26;10.83;;;7.70;;
781;SDS011;374;52.568;13.402;2023-11-18T00:23:52;10.80;;;8.17;;
781;SDS011;374;52.568;13.402;2023-11-18T00:26:18;14.50;;;7.30;;
781;SDS011;374;52.568;13.402;2023-11-18T00:28:43;10.93;;;7.40;;
781;SDS011;374;52.568;13.402;2023-11-18T00:31:09;9.83;;;7.93;;
781;SDS011;374;52.568;13.402;2023-11-18T00:33:34;11.27;;;7.43;;
781;SDS011;374;52.568;13.402;2023-11-18T00:36:00;11.07;;;7.23;;
781;SDS011;374;52.568;13.402;2023-11-18T00:38:26;11.30;;;8.17;;
781;SDS011;374;52.568;13.402;2023-11-18T00:40:51;10.60;;;8.23;;
781;SDS011;374;52.568;13.402;2023-11-18T00:43:17;11.27;;;8.10;;
781;SDS011;374;52.568;13.402;2023-11-18T00:45:43;10.27;;;8.30;;
781;SDS011;374;52.568;13.402;2023-11-18T00:48:08;8.83;;;7.90;;
781;SDS011;374;52.568;13.402;2023-11-18T00:50:34;8.63;;;7.20;;
781;SDS011;374;52.568;13.402;2023-11-18T00:53:00;12.00;;;7.77;;
781;SDS011;374;52.568;13.402;2023-11-18T00:55:26;11.00;;;7.73;;
781;SDS011;374;52.568;13.402;2023-11-18T00:57:51;9.57;;;6.80;;
781;SDS011;374;52.568;13.402;2023-11-18T01:00:17;11.13;;;7.00;;
781;SDS011;374;52.568;13.402;2023-11-18T01:02:46;10.40;;;8.80;;
781;SDS011;374;52.568;13.402;2023-11-18T01:05:14;15.07;;;8.20;;
781;SDS011;374;52.568;13.402;2023-11-18T01:07:41;10.90;;;8.33;;
781;SDS011;374;52.568;13.402;2023-11-18T01:10:08;10.17;;;7.50;;
781;SDS011;374;52.568;13.402;2023-11-18T01:12:34;10.67;;;7.23;;
781;SDS011;374;52.568;13.402;2023-11-18T01:15:00;14.07;;;7.53;;
781;SDS011;374;52.568;13.402;2023-11-18T01:17:26;11.47;;;7.97;;
781;SDS011;374;52.568;13.402;2023-11-18T01:19:51;11.73;;;7.47;;
781;SDS011;374;52.568;13.402;2023-11-18T01:22:17;8.63;;;7.10;;
781;SDS011;374;52.568;13.402;2023-11-18T01:24:43;9.40;;;7.27;;
781;SDS011;374;52.568;13.402;2023-11-18T01:27:09;11.40;;;7.57;;
781;SDS011;374;52.568;13.402;2023-11-18T01:29:35;15.90;;;7.20;;
781;SDS011;374;52.568;13.402;2023-11-18T01:32:00;12.20;;;7.93;;
781;SDS011;374;52.568;13.402;2023-11-18T01:34:33;11.20;;;8.40;;
781;SDS011;374;52.568;13.402;2023-11-18T01:37:06;10.37;;;8.37;;
781;SDS011;374;52.568;13.402;2023-11-18T01:39:35;10.70;;;8.23;;
781;SDS011;374;52.568;13.402;2023-11-18T01:42:01;11.77;;;8.33;;
781;SDS011;374;52.568;13.402;2023-11-18T01:44:28;9.33;;;7.87;;
781;SDS011;374;52.568;13.402;2023-11-18T01:46:58;10.50;;;7.80;;
781;SDS011;374;52.568;13.402;2023-11-18T01:49:23;10.70;;;7.87;;
781;SDS011;374;52.568;13.402;2023-11-18T01:51:52;10.43;;;7.97;;
781;SDS011;374;52.568;13.402;2023-11-18T01:54:26;10.90;;;6.93;;
781;SDS011;374;52.568;13.402;2023-11-18T01:56:53;9.87;;;7.70;;
781;SDS011;374;52.568;13.402;2023-11-18T01:59:20;14.80;;;8.33;;
781;SDS011;374;52.568;13.402;2023-11-18T02:01:49;10.60;;;7.93;;
781;SDS011;374;52.568;13.402;2023-11-18T02:04:18;14.90;;;9.07;;
781;SDS011;374;52.568;13.402;2023-11-18T02:06:45;9.10;;;7.03;;
781;SDS011;374;52.568;13.402;2023-11-18T02:09:12;11.23;;;6.90;;
781;SDS011;374;52.568;13.402;2023-11-18T02:11:41;11.77;;;7.53;;
781;SDS011;374;52.568;13.402;2023-11-18T02:14:19;10.83;;;8.33;;
781;SDS011;374;52.568;13.402;2023-11-18T02:16:49;8.80;;;7.07;;
781;SDS011;374;52.568;13.402;2023-11-18T02:19:21;11.90;;;8.47;;
781;SDS011;374;52.568;13.402;2023-11-18T02:21:49;10.60;;;7.00;;
781;SDS011;374;52.568;13.402;2023-11-18T02:24:26;10.57;;;7.90;;
781;SDS011;374;52.568;13.402;2023-11-18T02:27:01;13.50;;;9.47;;
781;SDS011;374;52.568;13.402;2023-11-18T02:29:29;14.70;;;8.80;;
781;SDS011;374;52.568;13.402;2023-11-18T02:32:03;12.50;;;8.17;;
781;SDS011;374;52.568;13.402;2023-11-18T02:34:33;10.97;;;8.20;;
781;SDS011;374;52.568;13.402;2023-11-18T02:37:01;12.30;;;8.43;;
781;SDS011;374;52.568;13.402;2023-11-18T02:39:36;9.73;;;7.80;;
781;SDS011;374;52.568;13.402;2023-11-18T02:42:06;11.80;;;8.47;;
781;SDS011;374;52.568;13.402;2023-11-18T02:44:33;10.00;;;7.00;;
781;SDS011;374;52.568;13.402;2023-11-18T02:47:01;10.23;;;7.67;;
781;SDS011;374;52.568;13.402;2023-11-18T02:49:27;11.23;;;7.97;;
781;SDS011;374;52.568;13.402;2023-11-18T02:51:54;13.70;;;9.03;;
781;SDS011;374;52.568;13.402;2023-11-18T02:54:20;11.33;;;7.50;;
781;SDS011;374;52.568;13.402;2023-11-18T02:56:46;12.03;;;8.90;;
781;SDS011;374;52.568;13.402;2023-11-18T02:59:12;12.37;;;8.30;;
781;SDS011;374;52.568;13.402;2023-11-18T03:01:38;12.37;;;7.90;;
781;SDS011;374;52.568;13.402;2023-11-18T03:04:07;12.17;;;9.07;;
781;SDS011;374;52.568;13.402;2023-11-18T03:06:33;15.80;;;7.90;;
781;SDS011;374;52.568;13.402;2023-11-18T03:09:00;11.63;;;7.70;;
781;SDS011;374;52.568;13.402;2023-11-18T03:11:28;12.80;;;7.87;;
781;SDS011;374;52.568;13.402;2023-11-18T03:14:03;9.80;;;6.57;;
781;SDS011;374;52.568;13.402;2023-11-18T03:16:29;10.03;;;7.93;;
781;SDS011;374;52.568;13.402;2023-11-18T03:18:55;8.23;;;6.77;;
781;SDS011;374;52.568;13.402;2023-11-18T03:21:20;9.90;;;6.87;;
781;SDS011;374;52.568;13.402;2023-11-18T03:23:46;10.47;;;7.10;;
781;SDS011;374;52.568;13.402;2023-11-18T03:26:12;10.80;;;7.33;;
781;SDS011;374;52.568;13.402;2023-11-18T03:28:38;10.13;;;6.43;;
781;SDS011;374;52.568;13.402;2023-11-18T03:31:05;8.20;;;6.60;;
781;SDS011;374;52.568;13.402;2023-11-18T03:33:30;9.00;;;5.93;;
781;SDS011;374;52.568;13.402;2023-11-18T03:35:56;10.63;;;6.40;;
781;SDS011;374;52.568;13.402;2023-11-18T03:38:22;8.10;;;6.37;;
781;SDS011;374;52.568;13.402;2023-11-18T03:40:48;12.47;;;6.90;;
781;SDS011;374;52.568;13.402;2023-11-18T03:43:14;9.70;;;6.43;;
781;SDS011;374;52.568;13.402;2023-11-18T03:45:40;9.20;;;6.60;;
781;SDS011;374;52.568;13.402;2023-11-18T03:48:06;7.93;;;5.70;;
781;SDS011;374;52.568;13.402;2023-11-18T03:50:32;11.43;;;7.90;;
781;SDS011;374;52.568;13.402;2023-11-18T03:52:58;13.03;;;7.67;;
781;SDS011;374;52.568;13.402;2023-11-18T03:55:23;10.50;;;6.13;;
781;SDS011;374;52.568;13.402;2023-11-18T03:57:50;9.40;;;6.23;;
781;SDS011;374;52.568;13.402;2023-11-18T04:00:17;11.50;;;7.10;;
781;SDS011;374;52.568;13.402;2023-11-18T04:02:42;8.20;;;6.57;;
781;SDS011;374;52.568;13.402;2023-11-18T04:05:10;8.30;;;5.50;;
781;SDS011;374;52.568;13.402;2023-11-18T04:07:37;7.60;;;5.70;;
781;SDS011;374;52.568;13.402;2023-11-18T04:10:02;8.20;;;6.03;;
781;SDS011;374;52.568;13.402;2023-11-18T04:12:31;10.70;;;7.23;;
781;SDS011;374;52.568;13.402;2023-11-18T04:14:57;8.53;;;7.03;;
781;SDS011;374;52.568;13.402;2023-11-18T04:17:22;7.97;;;5.90;;
781;SDS011;374;52.568;13.402;2023-11-18T04:19:48;7.63;;;5.70;;
781;SDS011;374;52.568;13.402;2023-11-18T04:22:13;9.80;;;6.97;;
781;SDS011;374;52.568;13.402;2023-11-18T04:24:39;8.70;;;5.83;;
781;SDS011;374;52.568;13.402;2023-11-18T04:27:04;9.40;;;5.80;;
781;SDS011;374;52.568;13.402;2023-11-18T04:29:30;8.90;;;6.20;;
781;SDS011;374;52.568;13.402;2023-11-18T04:31:55;8.83;;;6.70;;
781;SDS011;374;52.568;13.402;2023-11-18T04:34:21;10.30;;;6.87;;
781;SDS011;374;52.568;13.402;2023-11-18T04:36:46;9.80;;;6.87;;
781;SDS011;374;52.568;13.402;2023-11-18T04:39:12;8.53;;;7.10;;
781;SDS011;374;52.568;13.402;2023-11-18T04:41:37;14.77;;;8.10;;
781;SDS011;374;52.568;13.402;2023-11-18T04:44:03;12.83;;;8.40;;
781;SDS011;374;52.568;13.402;2023-11-18T04:46:35;10.17;;;7.13;;
781;SDS011;374;52.568;13.402;2023-11-18T04:49:01;11.73;;;7.60;;
781;SDS011;374;52.568;13.402;2023-11-18T04:51:27;11.07;;;7.33;;
781;SDS011;374;52.568;13.402;2023-11-18T04:53:53;13.03;;;8.20;;
781;SDS011;374;52.568;13.402;2023-11-18T04:56:18;10.37;;;7.47;;
781;SDS011;374;52.568;13.402;2023-11-18T04:58:45;14.43;;;8.17;;
781;SDS011;374;52.568;13.402;2023-11-18T05:01:13;11.00;;;7.23;;
781;SDS011;374;52.568;13.402;2023-11-18T05:03:39;10.43;;;7.23;;
781;SDS011;374;52.568;13.402;2023-11-18T05:06:04;9.80;;;8.17;;
781;SDS011;374;52.568;13.402;2023-11-18T05:08:30;12.97;;;8.77;;
781;SDS011;374;52.568;13.402;2023-11-18T05:10:56;9.40;;;7.60;;
781;SDS011;374;52.568;13.402;2023-11-18T05:13:22;9.70;;;7.90;;
781;SDS011;374;52.568;13.402;2023-11-18T05:15:48;11.50;;;7.93;;
781;SDS011;374;52.568;13.402;2023-11-18T05:18:15;11.30;;;8.17;;
781;SDS011;374;52.568;13.402;2023-11-18T05:20:41;11.60;;;8.30;;
781;SDS011;374;52.568;13.402;2023-11-18T05:23:07;9.37;;;7.87;;
781;SDS011;374;52.568;13.402;2023-11-18T05:25:35;13.40;;;8.40;;
781;SDS011;374;52.568;13.402;2023-11-18T05:28:01;11.03;;;8.10;;
781;SDS011;374;52.568;13.402;2023-11-18T05:30:28;13.33;;;9.00;;
781;SDS011;374;52.568;13.402;2023-11-18T05:32:53;12.70;;;8.23;;
781;SDS011;374;52.568;13.402;2023-11-18T05:35:19;12.83;;;7.73;;
781;SDS011;374;52.568;13.402;2023-11-18T05:37:48;14.53;;;8.77;;
781;SDS011;374;52.568;13.402;2023-11-18T05:40:14;12.60;;;8.57;;
781;SDS011;374;52.568;13.402;2023-11-18T05:42:40;10.60;;;7.13;;
781;SDS011;374;52.568;13.402;2023-11-18T05:45:06;12.80;;;9.20;;
781;SDS011;374;52.568;13.402;2023-11-18T05:47:42;9.00;;;7.77;;
781;SDS011;374;52.568;13.402;2023-11-18T05:50:08;12.10;;;8.77;;
781;SDS011;374;52.568;13.402;2023-11-18T05:52:34;13.80;;;8.87;;
781;SDS011;374;52.568;13.402;2023-11-18T05:55:00;10.50;;;7.30;;
781;SDS011;374;52.568;13.402;2023-11-18T05:57:25;9.97;;;7.37;;
781;SDS011;374;52.568;13.402;2023-11-18T05:59:52;10.70;;;7.93;;
781;SDS011;374;52.568;13.402;2023-11-18T06:02:19;11.23;;;7.47;;
781;SDS011;374;52.568;13.402;2023-11-18T06:04:46;12.40;;;7.90;;
781;SDS011;374;52.568;13.402;2023-11-18T06:07:12;13.60;;;7.67;;
781;SDS011;374;52.568;13.402;2023-11-18T06:09:38;11.33;;;7.30;;
781;SDS011;374;52.568;13.402;2023-11-18T06:12:07;11.17;;;8.13;;
781;SDS011;374;52.568;13.402;2023-11-18T06:14:33;14.00;;;8.20;;
781;SDS011;374;52.568;13.402;2023-11-18T06:16:59;12.23;;;8.03;;
781;SDS011;374;52.568;13.402;2023-11-18T06:19:25;12.97;;;8.43;;
781;SDS011;374;52.568;13.402;2023-11-18T06:21:50;12.80;;;8.20;;
781;SDS011;374;52.568;13.402;2023-11-18T06:24:16;10.67;;;7.20;;
781;SDS011;374;52.568;13.402;2023-11-18T06:26:43;10.77;;;8.50;;
781;SDS011;374;52.568;13.402;2023-11-18T06:29:09;10.10;;;7.90;;
781;SDS011;374;52.568;13.402;2023-11-18T06:31:35;14.87;;;9.60;;
781;SDS011;374;52.568;13.402;2023-11-18T06:34:00;10.60;;;7.80;;
781;SDS011;374;52.568;13.402;2023-11-18T06:36:28;12.33;;;9.23;;
781;SDS011;374;52.568;13.402;2023-11-18T06:38:55;13.90;;;9.07;;
781;SDS011;374;52.568;13.402;2023-11-18T06:41:22;13.83;;;9.70;;
781;SDS011;374;52.568;13.402;2023-11-18T06:43:48;14.33;;;9.33;;
781;SDS011;374;52.568;13.402;2023-11-18T06:46:22;13.03;;;8.60;;
781;SDS011;374;52.568;13.402;2023-11-18T06:48:58;13.87;;;9.23;;
781;SDS011;374;52.568;13.402;2023-11-18T06:51:24;12.43;;;9.10;;
781;SDS011;374;52.568;13.402;2023-11-18T06:53:52;14.17;;;10.40;;
781;SDS011;374;52.568;13.402;2023-11-18T06:56:22;11.97;;;9.03;;
781;SDS011;374;52.568;13.402;2023-11-18T06:58:51;14.70;;;9.13;;
781;SDS011;374;52.568;13.402;2023-11-18T07:01:17;14.87;;;8.33;;
781;SDS011;374;52.568;13.402;2023-11-18T07:03:46;13.00;;;8.63;;
781;SDS011;374;52.568;13.402;2023-11-18T07:06:16;11.63;;;8.23;;
781;SDS011;374;52.568;13.402;2023-11-18T07:08:47;13.47;;;8.90;;
781;SDS011;374;52.568;13.402;2023-11-18T07:11:14;15.50;;;9.70;;
781;SDS011;374;52.568;13.402;2023-11-18T07:13:40;15.00;;;9.83;;
781;SDS011;374;52.568;13.402;2023-11-18T07:16:06;14.90;;;9.70;;
781;SDS011;374;52.568;13.402;2023-11-18T07:18:40;12.53;;;8.63;;
781;SDS011;374;52.568;13.402;2023-11-18T07:21:12;16.43;;;9.60;;
781;SDS011;374;52.568;13.402;2023-11-18T07:23:39;15.63;;;10.20;;
781;SDS011;374;52.568;13.402;2023-11-18T07:26:04;14.10;;;9.50;;
781;SDS011;374;52.568;13.402;2023-11-18T07:28:30;18.50;;;9.97;;
781;SDS011;374;52.568;13.402;2023-11-18T07:30:56;16.33;;;9.30;;
781;SDS011;374;52.568;13.402;2023-11-18T07:33:23;14.93;;;9.93;;
781;SDS011;374;52.568;13.402;2023-11-18T07:35:48;13.83;;;9.77;;
781;SDS011;374;52.568;13.402;2023-11-18T07:38:15;14.10;;;10.00;;
781;SDS011;374;52.568;13.402;2023-11-18T07:40:41;17.70;;;10.00;;
781;SDS011;374;52.568;13.402;2023-11-18T07:43:11;12.33;;;9.53;;
781;SDS011;374;52.568;13.402;2023-11-18T07:45:37;14.30;;;10.50;;
781;SDS011;374;52.568;13.402;2023-11-18T07:48:04;15.47;;;9.87;;
781;SDS011;374;52.568;13.402;2023-11-18T07:50:32;21.17;;;13.07;;
781;SDS011;374;52.568;13.402;2023-11-18T07:53:09;15.17;;;9.57;;
781;SDS011;374;52.568;13.402;2023-11-18T07:55:35;12.10;;;8.53;;
781;SDS011;374;52.568;13.402;2023-11-18T07:58:04;11.43;;;8.97;;
781;SDS011;374;52.568;13.402;2023-11-18T08:00:31;16.67;;;9.37;;
781;SDS011;374;52.568;13.402;2023-11-18T08:02:58;15.13;;;10.70;;
781;SDS011;374;52.568;13.402;2023-11-18T08:05:25;14.77;;;10.30;;
781;SDS011;374;52.568;13.402;2023-11-18T08:07:53;21.80;;;11.23;;
781;SDS011;374;52.568;13.402;2023-11-18T08:10:19;16.03;;;10.00;;
781;SDS011;374;52.568;13.402;2023-11-18T08:12:45;13.67;;;10.23;;
781;SDS011;374;52.568;13.402;2023-11-18T08:15:12;14.00;;;8.93;;
781;SDS011;374;52.568;13.402;2023-11-18T08:17:38;13.60;;;9.17;;
781;SDS011;374;52.568;13.402;2023-11-18T08:20:04;17.60;;;10.00;;
781;SDS011;374;52.568;13.402;2023-11-18T08:22:39;17.40;;;10.60;;
781;SDS011;374;52.568;13.402;2023-11-18T08:25:07;13.80;;;10.00;;
781;SDS011;374;52.568;13.402;2023-11-18T08:27:33;18.53;;;10.60;;
781;SDS011;374;52.568;13.402;2023-11-18T08:30:00;15.60;;;10.10;;
781;SDS011;374;52.568;13.402;2023-11-18T08:32:26;18.37;;;9.67;;
781;SDS011;374;52.568;13.402;2023-11-18T08:34:51;14.80;;;11.10;;
781;SDS011;374;52.568;13.402;2023-11-18T08:37:17;15.60;;;10.00;;
781;SDS011;374;52.568;13.402;2023-11-18T08:39:42;13.43;;;8.80;;
781;SDS011;374;52.568;13.402;2023-11-18T08:42:08;11.57;;;8.33;;
781;SDS011;374;52.568;13.402;2023-11-18T08:44:33;12.57;;;8.83;;
781;SDS011;374;52.568;13.402;2023-11-18T08:46:59;12.93;;;8.07;;
781;SDS011;374;52.568;13.402;2023-11-18T08:49:24;15.53;;;8.20;;
781;SDS011;374;52.568;13.402;2023-11-18T08:51:50;16.20;;;8.50;;
781;SDS011;374;52.568;13.402;2023-11-18T08:54:23;9.93;;;7.23;;
781;SDS011;374;52.568;13.402;2023-11-18T08:56:51;10.13;;;6.83;;
781;SDS011;374;52.568;13.402;2023-11-18T08:59:18;11.07;;;6.50;;
781;SDS011;374;52.568;13.402;2023-11-18T09:01:49;10.20;;;6.73;;
781;SDS011;374;52.568;13.402;2023-11-18T09:04:20;12.67;;;8.47;;
781;SDS011;374;52.568;13.402;2023-11-18T09:06:54;11.53;;;8.00;;
781;SDS011;374;52.568;13.402;2023-11-18T09:09:25;10.90;;;7.80;;
781;SDS011;374;52.568;13.402;2023-11-18T09:11:56;16.33;;;7.53;;
781;SDS011;374;52.568;13.402;2023-11-18T09:14:26;15.93;;;7.57;;
781;SDS011;374;52.568;13.402;2023-11-18T09:16:52;11.57;;;7.20;;
781;SDS011;374;52.568;13.402;2023-11-18T09:19:21;8.90;;;6.97;;
781;SDS011;374;52.568;13.402;2023-11-18T09:21:47;14.40;;;8.80;;
781;SDS011;374;52.568;13.402;2023-11-18T09:24:13;14.23;;;8.47;;
781;SDS011;374;52.568;13.402;2023-11-18T09:26:39;13.30;;;7.80;;
781;SDS011;374;52.568;13.402;2023-11-18T09:29:09;13.50;;;8.00;;
781;SDS011;374;52.568;13.402;2023-11-18T09:31:34;9.83;;;7.57;;
781;SDS011;374;52.568;13.402;2023-11-18T09:34:02;9.87;;;6.87;;
781;SDS011;374;52.568;13.402;2023-11-18T09:36:31;14.13;;;8.03;;
781;SDS011;374;52.568;13.402;2023-11-18T09:38:58;11.13;;;6.57;;
781;SDS011;374;52.568;13.402;2023-11-18T09:41:25;9.50;;;7.63;;
781;SDS011;374;52.568;13.402;2023-11-18T09:43:52;10.83;;;7.50;;
781;SDS011;374;52.568;13.402;2023-11-18T09:46:25;10.10;;;8.47;;
781;SDS011;374;52.568;13.402;2023-11-18T09:51:42;11.17;;;8.10;;
781;SDS011;374;52.568;13.402;2023-11-18T09:54:29;11.30;;;7.40;;
781;SDS011;374;52.568;13.402;2023-11-18T09:57:23;11.90;;;9.00;;
781;SDS011;374;52.568;13.402;2023-11-18T10:02:25;12.33;;;7.57;;
781;SDS011;374;52.568;13.402;2023-11-18T10:04:54;10.23;;;7.50;;
781;SDS011;374;52.568;13.402;2023-11-18T10:07:25;14.37;;;8.67;;
781;SDS011;374;52.568;13.402;2023-11-18T10:09:55;9.43;;;7.73;;
781;SDS011;374;52.568;13.402;2023-11-18T10:12:24;11.70;;;6.83;;
781;SDS011;374;52.568;13.402;2023-11-18T10:14:51;11.30;;;8.10;;
781;SDS011;374;52.568;13.402;2023-11-18T10:17:17;13.20;;;7.43;;
781;SDS011;374;52.568;13.402;2023-11-18T10:19:57;8.90;;;7.47;;
781;SDS011;374;52.568;13.402;2023-11-18T10:22:37;14.07;;;7.00;;
781;SDS011;374;52.568;13.402;2023-11-18T10:25:03;21.63;;;7.93;;
781;SDS011;374;52.568;13.402;2023-11-18T10:27:31;14.63;;;7.80;;
781;SDS011;374;52.568;13.402;2023-11-18T10:32:22;11.00;;;6.70;;
781;SDS011;374;52.568;13.402;2023-11-18T10:34:53;10.03;;;6.33;;
781;SDS011;374;52.568;13.402;2023-11-18T10:37:22;13.47;;;6.90;;
781;SDS011;374;52.568;13.402;2023-11-18T10:39:48;14.37;;;8.03;;
781;SDS011;374;52.568;13.402;2023-11-18T10:42:16;17.80;;;7.93;;
781;SDS011;374;52.568;13.402;2023-11-18T10:44:54;10.90;;;7.80;;
781;SDS011;374;52.568;13.402;2023-11-18T10:47:32;13.73;;;8.63;;
781;SDS011;374;52.568;13.402;2023-11-18T10:50:00;14.60;;;8.83;;
781;SDS011;374;52.568;13.402;2023-11-18T10:52:26;13.97;;;7.80;;
781;SDS011;374;52.568;13.402;2023-11-18T10:54:56;9.20;;;6.97;;
781;SDS011;374;52.568;13.402;2023-11-18T10:57:21;15.00;;;9.40;;
781;SDS011;374;52.568;13.402;2023-11-18T11:00:00;11.60;;;7.00;;
781;SDS011;374;52.568;13.402;2023-11-18T11:02:29;11.53;;;6.70;;
781;SDS011;374;52.568;13.402;2023-11-18T11:04:59;7.90;;;5.30;;
781;SDS011;374;52.568;13.402;2023-11-18T11:07:25;12.47;;;7.10;;
781;SDS011;374;52.568;13.402;2023-11-18T11:09:51;15.03;;;7.40;;
781;SDS011;374;52.568;13.402;2023-11-18T11:12:21;9.00;;;7.47;;
781;SDS011;374;52.568;13.402;2023-11-18T11:14:52;7.77;;;6.43;;
781;SDS011;374;52.568;13.402;2023-11-18T11:17:24;9.60;;;6.90;;
781;SDS011;374;52.568;13.402;2023-11-18T11:19:59;14.93;;;7.20;;
781;SDS011;374;52.568;13.402;2023-11-18T11:22:56;11.33;;;6.73;;
781;SDS011;374;52.568;13.402;2023-11-18T11:25:32;8.83;;;6.30;;
781;SDS011;374;52.568;13.402;2023-11-18T11:28:19;9.80;;;7.00;;
781;SDS011;374;52.568;13.402;2023-11-18T11:30:46;8.47;;;6.60;;
781;SDS011;374;52.568;13.402;2023-11-18T11:33:49;11.97;;;6.90;;
781;SDS011;374;52.568;13.402;2023-11-18T11:36:24;11.33;;;9.13;;
781;SDS011;374;52.568;13.402;2023-11-18T11:38:56;13.40;;;7.40;;
781;SDS011;374;52.568;13.402;2023-11-18T11:41:24;8.60;;;6.60;;
781;SDS011;374;52.568;13.402;2023-11-18T11:43:53;11.70;;;7.83;;
781;SDS011;374;52.568;13.402;2023-11-18T11:46:23;12.60;;;8.17;;
781;SDS011;374;52.568;13.402;2023-11-18T11:48:52;8.73;;;7.30;;
781;SDS011;374;52.568;13.402;2023-11-18T11:54:04;11.97;;;7.57;;
781;SDS011;374;52.568;13.402;2023-11-18T11:56:43;15.27;;;12.37;;
781;SDS011;374;52.568;13.402;2023-11-18T11:59:17;12.67;;;8.20;;
781;SDS011;374;52.568;13.402;2023-11-18T12:02:00;11.40;;;9.03;;
781;SDS011;374;52.568;13.402;2023-11-18T12:04:32;19.40;;;9.77;;
781;SDS011;374;52.568;13.402;2023-11-18T12:06:59;15.80;;;9.80;;
781;SDS011;374;52.568;13.402;2023-11-18T12:09:30;16.63;;;11.57;;
781;SDS011;374;52.568;13.402;2023-11-18T12:12:02;13.70;;;9.27;;
781;SDS011;374;52.568;13.402;2023-11-18T12:14:51;16.70;;;9.17;;
781;SDS011;374;52.568;13.402;2023-11-18T12:18:28;14.73;;;9.03;;
781;SDS011;374;52.568;13.402;2023-11-18T12:20:42;15.70;;;9.50;;
781;SDS011;374;52.568;13.402;2023-11-18T12:23:12;15.17;;;9.30;;
781;SDS011;374;52.568;13.402;2023-11-18T12:25:39;16.30;;;9.20;;
781;SDS011;374;52.568;13.402;2023-11-18T12:28:15;21.13;;;11.30;;
781;SDS011;374;52.568;13.402;2023-11-18T12:30:42;18.30;;;10.90;;
781;SDS011;374;52.568;13.402;2023-11-18T12:33:17;12.50;;;8.63;;
781;SDS011;374;52.568;13.402;2023-11-18T12:44:10;12.50;;;9.43;;
781;SDS011;374;52.568;13.402;2023-11-18T12:47:00;14.07;;;11.17;;
781;SDS011;374;52.568;13.402;2023-11-18T12:49:45;15.20;;;7.80;;
781;SDS011;374;52.568;13.402;2023-11-18T12:52:19;11.60;;;7.70;;
781;SDS011;374;52.568;13.402;2023-11-18T12:54:46;11.17;;;7.40;;
781;SDS011;374;52.568;13.402;2023-11-18T12:57:16;12.13;;;8.47;;
781;SDS011;374;52.568;13.402;2023-11-18T12:59:42;11.07;;;8.10;;
781;SDS011;374;52.568;13.402;2023-11-18T13:02:08;19.40;;;7.80;;
781;SDS011;374;52.568;13.402;2023-11-18T13:04:44;10.07;;;7.47;;
781;SDS011;374;52.568;13.402;2023-11-18T13:07:14;10.00;;;8.00;;
781;SDS011;374;52.568;13.402;2023-11-18T13:09:43;10.80;;;8.00;;
781;SDS011;374;52.568;13.402;2023-11-18T13:12:11;10.97;;;7.57;;
781;SDS011;374;52.568;13.402;2023-11-18T13:14:40;13.77;;;7.00;;
781;SDS011;374;52.568;13.402;2023-11-18T13:17:10;9.67;;;7.37;;
781;SDS011;374;52.568;13.402;2023-11-18T13:19:44;9.23;;;6.63;;
781;SDS011;374;52.568;13.402;2023-11-18T13:22:10;12.70;;;7.30;;
781;SDS011;374;52.568;13.402;2023-11-18T13:24:37;10.57;;;6.50;;
781;SDS011;374;52.568;13.402;2023-11-18T13:27:05;12.87;;;7.70;;
781;SDS011;374;52.568;13.402;2023-11-18T13:29:32;10.77;;;7.70;;
781;SDS011;374;52.568;13.402;2023-11-18T13:31:59;11.63;;;7.77;;
781;SDS011;374;52.568;13.402;2023-11-18T13:34:28;8.97;;;7.20;;
781;SDS011;374;52.568;13.402;2023-11-18T13:36:57;12.37;;;8.17;;
781;SDS011;374;52.568;13.402;2023-11-18T13:39:22;8.87;;;7.03;;
781;SDS011;374;52.568;13.402;2023-11-18T13:41:51;8.83;;;6.00;;
781;SDS011;374;52.568;13.402;2023-11-18T13:44:33;8.43;;;6.23;;
781;SDS011;374;52.568;13.402;2023-11-18T13:47:04;13.43;;;7.80;;
781;SDS011;374;52.568;13.402;2023-11-18T13:49:33;12.97;;;8.20;;
781;SDS011;374;52.568;13.402;2023-11-18T13:51:59;11.93;;;8.70;;
781;SDS011;374;52.568;13.402;2023-11-18T13:54:36;15.03;;;8.40;;
781;SDS011;374;52.568;13.402;2023-11-18T13:57:02;8.73;;;7.13;;
781;SDS011;374;52.568;13.402;2023-11-18T13:59:29;13.90;;;9.00;;
781;SDS011;374;52.568;13.402;2023-11-18T14:01:56;10.87;;;8.10;;
781;SDS011;374;52.568;13.402;2023-11-18T14:04:28;11.40;;;8.07;;
781;SDS011;374;52.568;13.402;2023-11-18T14:06:58;13.03;;;8.43;;
781;SDS011;374;52.568;13.402;2023-11-18T14:09:25;9.93;;;7.53;;
781;SDS011;374;52.568;13.402;2023-11-18T14:11:52;11.73;;;8.13;;
781;SDS011;374;52.568;13.402;2023-11-18T14:14:20;13.60;;;7.03;;
781;SDS011;374;52.568;13.402;2023-11-18T14:16:46;9.20;;;7.83;;
781;SDS011;374;52.568;13.402;2023-11-18T14:19:11;9.30;;;6.57;;
781;SDS011;374;52.568;13.402;2023-11-18T14:21:37;10.80;;;7.40;;
781;SDS011;374;52.568;13.402;2023-11-18T14:24:04;9.93;;;7.20;;
781;SDS011;374;52.568;13.402;2023-11-18T14:26:30;11.70;;;8.37;;
781;SDS011;374;52.568;13.402;2023-11-18T14:28:55;9.87;;;7.40;;
781;SDS011;374;52.568;13.402;2023-11-18T14:31:21;10.30;;;7.47;;
781;SDS011;374;52.568;13.402;2023-11-18T14:33:47;9.30;;;7.07;;
781;SDS011;374;52.568;13.402;2023-11-18T14:36:13;12.20;;;8.70;;
781;SDS011;374;52.568;13.402;2023-11-18T14:38:39;10.50;;;7.60;;
781;SDS011;374;52.568;13.402;2023-11-18T14:41:05;11.97;;;9.10;;
781;SDS011;374;52.568;13.402;2023-11-18T14:43:32;9.23;;;7.13;;
781;SDS011;374;52.568;13.402;2023-11-18T14:45:58;11.10;;;6.90;;
781;SDS011;374;52.568;13.402;2023-11-18T14:48:24;12.17;;;8.37;;
781;SDS011;374;52.568;13.402;2023-11-18T14:50:50;10.33;;;7.30;;
781;SDS011;374;52.568;13.402;2023-11-18T14:53:15;12.40;;;7.50;;
781;SDS011;374;52.568;13.402;2023-11-18T14:55:41;9.00;;;6.90;;
781;SDS011;374;52.568;13.402;2023-11-18T14:58:07;12.60;;;7.43;;
781;SDS011;374;52.568;13.402;2023-11-18T15:00:32;10.60;;;7.13;;
781;SDS011;374;52.568;13.402;2023-11-18T15:02:58;11.00;;;6.57;;
781;SDS011;374;52.568;13.402;2023-11-18T15:05:24;10.30;;;6.93;;
781;SDS011;374;52.568;13.402;2023-11-18T15:07:52;11.83;;;6.90;;
781;SDS011;374;52.568;13.402;2023-11-18T15:10:23;12.63;;;8.97;;
781;SDS011;374;52.568;13.402;2023-11-18T15:12:50;13.43;;;8.57;;
781;SDS011;374;52.568;13.402;2023-11-18T15:15:23;12.93;;;9.07;;
781;SDS011;374;52.568;13.402;2023-11-18T15:18:00;14.33;;;9.97;;
781;SDS011;374;52.568;13.402;2023-11-18T15:20:33;13.27;;;8.10;;
781;SDS011;374;52.568;13.402;2023-11-18T15:22:59;14.63;;;9.60;;
781;SDS011;374;52.568;13.402;2023-11-18T15:25:25;16.37;;;9.83;;
781;SDS011;374;52.568;13.402;2023-11-18T15:27:52;15.00;;;10.27;;
781;SDS011;374;52.568;13.402;2023-11-18T15:30:17;13.53;;;9.67;;
781;SDS011;374;52.568;13.402;2023-11-18T15:32:44;13.50;;;9.90;;
781;SDS011;374;52.568;13.402;2023-11-18T15:35:11;11.03;;;8.77;;
781;SDS011;374;52.568;13.402;2023-11-18T15:37:38;14.60;;;10.97;;
781;SDS011;374;52.568;13.402;2023-11-18T15:40:12;15.13;;;10.60;;
781;SDS011;374;52.568;13.402;2023-11-18T15:42:39;16.17;;;11.43;;
781;SDS011;374;52.568;13.402;2023-11-18T15:45:12;16.97;;;11.00;;